createdAt,value
2023-05-19T00:00:51.524Z,1247.00
2023-05-19T00:01:51.536Z,1244.00
2023-05-19T00:02:51.628Z,1269.00
2023-05-19T00:03:51.600Z,1282.00
2023-05-19T00:04:51.651Z,1281.00
2023-05-19T00:05:51.702Z,1274.00
2023-05-19T00:06:51.746Z,1295.00
2023-05-19T00:07:51.739Z,1260.00
2023-05-19T00:08:51.779Z,1255.00
2023-05-19T00:09:51.812Z,1278.00
2023-05-19T00:10:51.844Z,1295.00
2023-05-19T00:11:51.861Z,1280.00
2023-05-19T00:12:53.778Z,1276.00
2023-05-19T00:13:51.925Z,1283.00
2023-05-19T00:14:51.986Z,1273.00
2023-05-19T00:15:52.008Z,1256.00
2023-05-19T00:16:51.992Z,1268.00
2023-05-19T00:17:51.992Z,1275.00
2023-05-19T00:18:52.030Z,1305.00
2023-05-19T00:19:51.970Z,1307.00
2023-05-19T00:20:52.000Z,1323.00
2023-05-19T00:21:52.030Z,1312.00
2023-05-19T00:22:52.011Z,1308.00
2023-05-19T00:23:52.010Z,1295.00
2023-05-19T00:24:52.009Z,1304.00
2023-05-19T00:25:52.042Z,1329.00
2023-05-19T00:26:52.046Z,1318.00
2023-05-19T00:27:52.046Z,1329.00
2023-05-19T00:28:52.041Z,1314.00
2023-05-19T00:29:52.066Z,1331.00
2023-05-19T00:30:52.076Z,1337.00
2023-05-19T00:31:52.119Z,1320.00
2023-05-19T00:32:52.092Z,1327.00
2023-05-19T00:33:52.080Z,1343.00
2023-05-19T00:34:52.064Z,1343.00
2023-05-19T00:35:52.062Z,1362.00
2023-05-19T00:36:52.057Z,1360.00
2023-05-19T00:37:52.101Z,1365.00
2023-05-19T00:38:52.142Z,1376.00
2023-05-19T00:39:52.155Z,1371.00
2023-05-19T00:40:52.184Z,1399.00
2023-05-19T00:41:52.247Z,1388.00
2023-05-19T00:42:52.263Z,1406.00
2023-05-19T00:43:52.319Z,1410.00
2023-05-19T00:44:52.336Z,1414.00
2023-05-19T00:45:52.364Z,1411.00
2023-05-19T00:46:52.431Z,1435.00
2023-05-19T00:47:52.461Z,1427.00
2023-05-19T00:48:52.485Z,1424.00
2023-05-19T00:49:52.506Z,1452.00
2023-05-19T00:50:52.529Z,1449.00
2023-05-19T00:51:52.585Z,1467.00
2023-05-19T00:52:52.604Z,1451.00
2023-05-19T00:53:52.633Z,1484.00
2023-05-19T00:54:52.658Z,1443.00
2023-05-19T00:55:52.706Z,1485.00
2023-05-19T00:56:52.748Z,1470.00
2023-05-19T00:57:52.782Z,1469.00
2023-05-19T00:58:52.821Z,1509.00
2023-05-19T00:59:52.877Z,1496.00
2023-05-19T01:00:52.925Z,1481.00
2023-05-19T01:01:52.963Z,1490.00
2023-05-19T01:02:53.163Z,1517.00
2023-05-19T01:03:53.066Z,1480.00
2023-05-19T01:04:53.057Z,1502.00
2023-05-19T01:05:53.093Z,1485.00
2023-05-19T01:06:53.132Z,1477.00
2023-05-19T01:07:53.162Z,1507.00
2023-05-19T01:08:53.215Z,1471.00
2023-05-19T01:09:53.234Z,1504.00
2023-05-19T01:10:53.286Z,1496.00
2023-05-19T01:11:53.336Z,1515.00
2023-05-19T01:12:53.377Z,1506.00
2023-05-19T01:13:53.396Z,1500.00
2023-05-19T01:14:53.449Z,1502.00
2023-05-19T01:15:53.479Z,1492.00
2023-05-19T01:16:53.515Z,1524.00
2023-05-19T01:17:53.631Z,1522.00
2023-05-19T01:18:53.608Z,1550.00
2023-05-19T01:19:53.648Z,1560.00
2023-05-19T01:20:53.679Z,1563.00
2023-05-19T01:21:53.720Z,1571.00
2023-05-19T01:22:53.734Z,1602.00
2023-05-19T01:23:53.778Z,1564.00
2023-05-19T01:24:53.819Z,1585.00
2023-05-19T01:25:53.850Z,1566.00
2023-05-19T01:26:53.844Z,1601.00
2023-05-19T01:27:53.841Z,1585.00
2023-05-19T01:28:53.864Z,1618.00
2023-05-19T01:29:53.901Z,1601.00
2023-05-19T01:30:53.968Z,1627.00
2023-05-19T01:31:54.033Z,1608.00
2023-05-19T01:32:54.094Z,1609.00
2023-05-19T01:33:54.076Z,1598.00
2023-05-19T01:34:54.135Z,1598.00
2023-05-19T01:35:54.156Z,1605.00
2023-05-19T01:36:54.188Z,1636.00
2023-05-19T01:37:54.233Z,1631.00
2023-05-19T01:38:54.266Z,1676.00
2023-05-19T01:39:54.282Z,1693.00
2023-05-19T01:40:54.316Z,1671.00
2023-05-19T01:41:54.373Z,1694.00
2023-05-19T01:42:56.152Z,1665.00
2023-05-19T01:43:54.399Z,1690.00
2023-05-19T01:44:54.372Z,1711.00
2023-05-19T01:45:54.414Z,1725.00
2023-05-19T01:46:54.361Z,1699.00
2023-05-19T01:47:54.399Z,1701.00
2023-05-19T01:48:54.369Z,1722.00
2023-05-19T01:49:54.354Z,1724.00
2023-05-19T01:50:54.337Z,1697.00
2023-05-19T01:51:54.349Z,1706.00
2023-05-19T01:52:54.337Z,1701.00
2023-05-19T01:53:54.320Z,1724.00
2023-05-19T01:54:54.320Z,1694.00
2023-05-19T01:55:54.438Z,1775.00
2023-05-19T01:56:54.329Z,1740.00
2023-05-19T01:57:54.316Z,1709.00
2023-05-19T01:58:54.296Z,1731.00
2023-05-19T01:59:54.300Z,1697.00
2023-05-19T02:00:54.341Z,1695.00
2023-05-19T02:01:54.312Z,1694.00
2023-05-19T02:02:54.320Z,1724.00
2023-05-19T02:03:54.309Z,1722.00
2023-05-19T02:04:54.317Z,1717.00
2023-05-19T02:05:54.246Z,1719.00
2023-05-19T02:06:54.254Z,1741.00
2023-05-19T02:07:54.244Z,1727.00
2023-05-19T02:08:54.226Z,1703.00
2023-05-19T02:09:54.226Z,1718.00
2023-05-19T02:10:54.213Z,1748.00
2023-05-19T02:11:54.207Z,1698.00
2023-05-19T02:12:54.218Z,1704.00
2023-05-19T02:13:54.205Z,1701.00
2023-05-19T02:14:54.194Z,1709.00
2023-05-19T02:15:54.249Z,1719.00
2023-05-19T02:16:54.171Z,1707.00
2023-05-19T02:17:54.214Z,1729.00
2023-05-19T02:18:54.235Z,1716.00
2023-05-19T02:19:54.166Z,1728.00
2023-05-19T02:20:54.141Z,1747.00
2023-05-19T02:21:54.151Z,1752.00
2023-05-19T02:22:54.150Z,1744.00
2023-05-19T02:23:54.141Z,1746.00
2023-05-19T02:24:54.114Z,1748.00
2023-05-19T02:25:54.149Z,1762.00
2023-05-19T02:26:54.150Z,1772.00
2023-05-19T02:27:54.146Z,1761.00
2023-05-19T02:28:54.099Z,1773.00
2023-05-19T02:29:54.082Z,1771.00
2023-05-19T02:30:54.078Z,1758.00
2023-05-19T02:31:54.126Z,1757.00
2023-05-19T02:32:54.159Z,1778.00
2023-05-19T02:33:54.061Z,1799.00
2023-05-19T02:34:54.068Z,1823.00
2023-05-19T02:35:54.052Z,1802.00
2023-05-19T02:36:54.052Z,1797.00
2023-05-19T02:37:54.063Z,1802.00
2023-05-19T02:38:54.069Z,1813.00
2023-05-19T02:39:54.123Z,1818.00
2023-05-19T02:40:54.161Z,1791.00
2023-05-19T02:41:54.202Z,1791.00
2023-05-19T02:42:54.232Z,1807.00
2023-05-19T02:43:54.330Z,1772.00
2023-05-19T02:44:54.305Z,1801.00
2023-05-19T02:45:54.375Z,1810.00
2023-05-19T02:46:54.431Z,1776.00
2023-05-19T02:47:54.452Z,1785.00
2023-05-19T02:48:54.466Z,1800.00
2023-05-19T02:49:54.527Z,1788.00
2023-05-19T02:50:54.553Z,1777.00
2023-05-19T02:51:54.612Z,1824.00
2023-05-19T02:52:54.626Z,1818.00
2023-05-19T02:53:54.684Z,1829.00
2023-05-19T02:54:54.740Z,1842.00
2023-05-19T02:55:54.781Z,1842.00
2023-05-19T02:56:54.805Z,1857.00
2023-05-19T02:57:54.831Z,1838.00
2023-05-19T02:58:54.886Z,1836.00
2023-05-19T02:59:54.924Z,1837.00
2023-05-19T03:00:54.967Z,1827.00
2023-05-19T03:01:55.125Z,1816.00
2023-05-19T03:02:55.181Z,1803.00
2023-05-19T03:03:55.165Z,1832.00
2023-05-19T03:04:55.128Z,1847.00
2023-05-19T03:05:55.162Z,1858.00
2023-05-19T03:06:55.190Z,1829.00
2023-05-19T03:07:55.235Z,1863.00
2023-05-19T03:08:55.268Z,1852.00
2023-05-19T03:09:55.330Z,1867.00
2023-05-19T03:10:55.381Z,1867.00
2023-05-19T03:11:55.405Z,1828.00
2023-05-19T03:12:55.423Z,1843.00
2023-05-19T03:13:55.486Z,1837.00
2023-05-19T03:14:55.509Z,1842.00
2023-05-19T03:15:55.594Z,1855.00
2023-05-19T03:16:55.699Z,1838.00
2023-05-19T03:17:55.763Z,1824.00
2023-05-19T03:18:55.770Z,1849.00
2023-05-19T03:19:55.735Z,1853.00
2023-05-19T03:20:55.757Z,1839.00
2023-05-19T03:21:55.810Z,1856.00
2023-05-19T03:22:55.856Z,1867.00
2023-05-19T03:23:55.891Z,1874.00
2023-05-19T03:24:55.989Z,1861.00
2023-05-19T03:25:55.971Z,1860.00
2023-05-19T03:26:56.032Z,1854.00
2023-05-19T03:27:56.053Z,1862.00
2023-05-19T03:28:56.111Z,1885.00
2023-05-19T03:29:56.142Z,1907.00
2023-05-19T03:30:56.193Z,1900.00
2023-05-19T03:31:56.253Z,1883.00
2023-05-19T03:32:56.376Z,1871.00
2023-05-19T03:33:56.340Z,1883.00
2023-05-19T03:34:56.369Z,1875.00
2023-05-19T03:35:56.417Z,1887.00
2023-05-19T03:36:56.444Z,1881.00
2023-05-19T03:37:56.479Z,1888.00
2023-05-19T03:38:56.537Z,1863.00
2023-05-19T03:39:56.567Z,1887.00
2023-05-19T03:40:56.622Z,1901.00
2023-05-19T03:41:56.669Z,1899.00
2023-05-19T03:42:56.705Z,1889.00
2023-05-19T03:43:56.737Z,1880.00
2023-05-19T03:44:56.775Z,1877.00
2023-05-19T03:45:56.840Z,1867.00
2023-05-19T03:46:56.853Z,1873.00
2023-05-19T03:47:56.918Z,1886.00
2023-05-19T03:48:56.927Z,1877.00
2023-05-19T03:49:56.964Z,1867.00
2023-05-19T03:50:57.012Z,1883.00
2023-05-19T03:51:57.067Z,1915.00
2023-05-19T03:52:57.129Z,1926.00
2023-05-19T03:53:57.139Z,1919.00
2023-05-19T03:54:57.196Z,1923.00
2023-05-19T03:55:57.225Z,1924.00
2023-05-19T03:56:57.280Z,1902.00
2023-05-19T03:57:57.413Z,1896.00
2023-05-19T03:58:57.339Z,1906.00
2023-05-19T03:59:57.393Z,1923.00
2023-05-19T04:00:57.424Z,1935.00
2023-05-19T04:01:57.500Z,1940.00
2023-05-19T04:02:57.635Z,1921.00
2023-05-19T04:03:57.585Z,1929.00
2023-05-19T04:04:57.846Z,1915.00
2023-05-19T04:05:57.630Z,1905.00
2023-05-19T04:06:57.698Z,1925.00
2023-05-19T04:07:57.720Z,1923.00
2023-05-19T04:08:57.760Z,1932.00
2023-05-19T04:09:57.816Z,1915.00
2023-05-19T04:10:57.848Z,1954.00
2023-05-19T04:11:57.892Z,1950.00
2023-05-19T04:12:57.923Z,1953.00
2023-05-19T04:13:57.977Z,1931.00
2023-05-19T04:14:58.030Z,1944.00
2023-05-19T04:15:58.073Z,1951.00
2023-05-19T04:16:58.101Z,1941.00
2023-05-19T04:17:58.177Z,1948.00
2023-05-19T04:18:58.229Z,1959.00
2023-05-19T04:19:58.214Z,1900.00
2023-05-19T04:20:58.242Z,1927.00
2023-05-19T04:21:58.300Z,1899.00
2023-05-19T04:22:58.317Z,1904.00
2023-05-19T04:23:58.370Z,1898.00
2023-05-19T04:24:58.415Z,1875.00
2023-05-19T04:25:58.426Z,1871.00
2023-05-19T04:26:58.484Z,1874.00
2023-05-19T04:27:58.500Z,1875.00
2023-05-19T04:28:58.553Z,1896.00
2023-05-19T04:29:58.573Z,1885.00
2023-05-19T04:30:58.709Z,1856.00
2023-05-19T04:31:58.569Z,1863.00
2023-05-19T04:32:58.598Z,1855.00
2023-05-19T04:33:58.560Z,1856.00
2023-05-19T04:34:58.567Z,1875.00
2023-05-19T04:35:58.557Z,1869.00
2023-05-19T04:36:58.573Z,1859.00
2023-05-19T04:37:58.612Z,1848.00
2023-05-19T04:38:58.629Z,1865.00
2023-05-19T04:39:58.673Z,1841.00
2023-05-19T04:40:58.704Z,1822.00
2023-05-19T04:41:58.740Z,1835.00
2023-05-19T04:42:58.778Z,1869.00
2023-05-19T04:43:58.815Z,1858.00
2023-05-19T04:44:58.832Z,1865.00
2023-05-19T04:45:58.874Z,1855.00
2023-05-19T04:46:58.992Z,1826.00
2023-05-19T04:47:58.982Z,1838.00
2023-05-19T04:48:58.987Z,1815.00
2023-05-19T04:49:59.011Z,1791.00
2023-05-19T04:50:59.062Z,1807.00
2023-05-19T04:51:59.084Z,1819.00
2023-05-19T04:52:59.128Z,1815.00
2023-05-19T04:53:59.150Z,1827.00
2023-05-19T04:54:59.199Z,1850.00
2023-05-19T04:55:59.218Z,1823.00
2023-05-19T04:56:59.237Z,1819.00
2023-05-19T04:57:59.257Z,1795.00
2023-05-19T04:58:59.282Z,1793.00
2023-05-19T04:59:59.292Z,1792.00
2023-05-19T05:00:59.338Z,1768.00
2023-05-19T05:01:59.444Z,1782.00
2023-05-19T05:02:59.486Z,1756.00
2023-05-19T05:03:59.480Z,1744.00
2023-05-19T05:04:59.441Z,1693.00
2023-05-19T05:05:59.475Z,1695.00
2023-05-19T05:06:59.494Z,1682.00
2023-05-19T05:07:59.556Z,1678.00
2023-05-19T05:08:59.548Z,1644.00
2023-05-19T05:09:59.585Z,1653.00
2023-05-19T05:10:59.595Z,1664.00
2023-05-19T05:11:59.625Z,1663.00
2023-05-19T05:12:59.644Z,1645.00
2023-05-19T05:13:59.666Z,1622.00
2023-05-19T05:14:59.705Z,1629.00
2023-05-19T05:15:59.792Z,1586.00
2023-05-19T05:16:59.757Z,1542.00
2023-05-19T05:17:59.818Z,1553.00
2023-05-19T05:18:59.862Z,1605.00
2023-05-19T05:19:59.844Z,1585.00
2023-05-19T05:20:59.846Z,1585.00
2023-05-19T05:21:59.897Z,1585.00
2023-05-19T05:22:59.904Z,1556.00
2023-05-19T05:23:59.935Z,1558.00
2023-05-19T05:24:59.961Z,1584.00
2023-05-19T05:26:00.002Z,1561.00
2023-05-19T05:27:00.031Z,1539.00
2023-05-19T05:28:00.055Z,1579.00
2023-05-19T05:29:00.138Z,1512.00
2023-05-19T05:30:00.122Z,1480.00
2023-05-19T05:31:00.164Z,1468.00
2023-05-19T05:32:00.199Z,1484.00
2023-05-19T05:33:00.304Z,1487.00
2023-05-19T05:34:00.188Z,1484.00
2023-05-19T05:35:00.252Z,1460.00
2023-05-19T05:36:00.272Z,1488.00
2023-05-19T05:37:00.259Z,1455.00
2023-05-19T05:38:00.284Z,1461.00
2023-05-19T05:39:00.293Z,1457.00
2023-05-19T05:40:00.444Z,1456.00
2023-05-19T05:41:00.349Z,1434.00
2023-05-19T05:42:00.381Z,1438.00
2023-05-19T05:43:00.393Z,1479.00
2023-05-19T05:44:00.400Z,1497.00
2023-05-19T05:45:00.450Z,1483.00
2023-05-19T05:46:00.528Z,1494.00
2023-05-19T05:47:00.489Z,1512.00
2023-05-19T05:48:00.524Z,1467.00
2023-05-19T05:49:00.533Z,1471.00
2023-05-19T05:50:00.544Z,1478.00
2023-05-19T05:51:00.570Z,1513.00
2023-05-19T05:52:06.124Z,1482.00
2023-05-19T05:53:01.593Z,1483.00
2023-05-19T05:54:00.566Z,1483.00
2023-05-19T05:55:00.585Z,1489.00
2023-05-19T05:56:00.565Z,1486.00
2023-05-19T05:57:00.567Z,1491.00
2023-05-19T05:58:00.545Z,1470.00
2023-05-19T05:59:00.569Z,1498.00
2023-05-19T06:00:00.542Z,1462.00
2023-05-19T06:01:00.518Z,1501.00
2023-05-19T06:02:00.579Z,1487.00
2023-05-19T06:03:00.620Z,1509.00
2023-05-19T06:04:00.524Z,1483.00
2023-05-19T06:05:00.621Z,1486.00
2023-05-19T06:06:00.584Z,1509.00
2023-05-19T06:07:00.497Z,1492.00
2023-05-19T06:08:00.489Z,1469.00
2023-05-19T06:09:00.483Z,1467.00
2023-05-19T06:10:00.500Z,1452.00
2023-05-19T06:11:00.467Z,1476.00
2023-05-19T06:12:00.475Z,1478.00
2023-05-19T06:13:00.476Z,1498.00
2023-05-19T06:14:00.484Z,1487.00
2023-05-19T06:15:00.452Z,1478.00
2023-05-19T06:16:02.008Z,1461.00
2023-05-19T06:17:00.422Z,1468.00
2023-05-19T06:18:00.457Z,1498.00
2023-05-19T06:19:00.438Z,1516.00
2023-05-19T06:20:00.412Z,1521.00
2023-05-19T06:21:00.400Z,1513.00
2023-05-19T06:22:00.391Z,1477.00
2023-05-19T06:23:00.398Z,1472.00
2023-05-19T06:24:00.426Z,1436.00
2023-05-19T06:25:00.395Z,1467.00
2023-05-19T06:26:00.388Z,1479.00
2023-05-19T06:27:00.407Z,1470.00
2023-05-19T06:28:00.416Z,1456.00
2023-05-19T06:29:00.424Z,1446.00
2023-05-19T06:30:00.440Z,1446.00
2023-05-19T06:31:00.463Z,1471.00
2023-05-19T06:32:00.457Z,1470.00
2023-05-19T06:33:00.485Z,1486.00
2023-05-19T06:34:00.451Z,1508.00
2023-05-19T06:35:00.442Z,1509.00
2023-05-19T06:36:00.457Z,1504.00
2023-05-19T06:37:00.449Z,1545.00
2023-05-19T06:38:00.467Z,1520.00
2023-05-19T06:39:02.592Z,1542.00
2023-05-19T06:40:00.460Z,1508.00
2023-05-19T06:41:00.456Z,1508.00
2023-05-19T06:42:00.468Z,1526.00
2023-05-19T06:43:00.502Z,1517.00
2023-05-19T06:44:00.464Z,1502.00
2023-05-19T06:45:00.489Z,1444.00
2023-05-19T06:46:00.479Z,1495.00
2023-05-19T06:47:00.523Z,1474.00
2023-05-19T06:48:00.578Z,1470.00
2023-05-19T06:49:00.489Z,1445.00
2023-05-19T06:50:00.488Z,1435.00
2023-05-19T06:51:00.502Z,1446.00
2023-05-19T06:52:00.561Z,1498.00
2023-05-19T06:53:00.510Z,1480.00
2023-05-19T06:54:00.499Z,1552.00
2023-05-19T06:55:00.511Z,1547.00
2023-05-19T06:56:00.649Z,1554.00
2023-05-19T06:57:00.600Z,1546.00
2023-05-19T06:58:00.630Z,1542.00
2023-05-19T06:59:00.633Z,1572.00
2023-05-19T07:00:00.615Z,1552.00
2023-05-19T07:01:00.638Z,1583.00
2023-05-19T07:02:00.716Z,1580.00
2023-05-19T07:03:00.674Z,1563.00
2023-05-19T07:04:00.796Z,1539.00
2023-05-19T07:05:00.585Z,1561.00
2023-05-19T07:06:00.594Z,1544.00
2023-05-19T07:07:00.577Z,1499.00
2023-05-19T07:08:00.575Z,1533.00
2023-05-19T07:09:00.589Z,1522.00
2023-05-19T07:10:00.596Z,1495.00
2023-05-19T07:11:00.578Z,1524.00
2023-05-19T07:12:00.587Z,1515.00
2023-05-19T07:13:00.574Z,1553.00
2023-05-19T07:14:00.582Z,1548.00
2023-05-19T07:15:00.581Z,1492.00
2023-05-19T07:16:00.772Z,1504.00
2023-05-19T07:17:00.598Z,1499.00
2023-05-19T07:18:00.697Z,1457.00
2023-05-19T07:19:00.694Z,1530.00
2023-05-19T07:20:00.671Z,1533.00
2023-05-19T07:21:00.685Z,1595.00
2023-05-19T07:22:00.736Z,1567.00
2023-05-19T07:23:00.768Z,1596.00
2023-05-19T07:24:00.792Z,1549.00
2023-05-19T07:25:00.848Z,1544.00
2023-05-19T07:26:00.847Z,1584.00
2023-05-19T07:27:00.879Z,1593.00
2023-05-19T07:28:00.911Z,1645.00
2023-05-19T07:29:00.960Z,1646.00
2023-05-19T07:30:00.963Z,1599.00
2023-05-19T07:31:00.992Z,1560.00
2023-05-19T07:32:01.107Z,1580.00
2023-05-19T07:33:01.120Z,1586.00
2023-05-19T07:34:01.089Z,1605.00
2023-05-19T07:35:01.141Z,1558.00
2023-05-19T07:36:01.163Z,1589.00
2023-05-19T07:37:01.206Z,1620.00
2023-05-19T07:38:01.258Z,1616.00
2023-05-19T07:39:01.400Z,1674.00
2023-05-19T07:40:01.324Z,1700.00
2023-05-19T07:41:01.364Z,1694.00
2023-05-19T07:42:01.412Z,1749.00
2023-05-19T07:43:01.479Z,1769.00
2023-05-19T07:44:01.524Z,1800.00
2023-05-19T07:45:01.629Z,1780.00
2023-05-19T07:46:01.651Z,1766.00
2023-05-19T07:47:01.700Z,1745.00
2023-05-19T07:48:01.914Z,1739.00
2023-05-19T07:49:01.830Z,1729.00
2023-05-19T07:50:01.880Z,1731.00
2023-05-19T07:51:01.938Z,1746.00
2023-05-19T07:52:02.038Z,1735.00
2023-05-19T07:53:02.083Z,1742.00
2023-05-19T07:54:02.163Z,1791.00
2023-05-19T07:55:02.181Z,1857.00
2023-05-19T07:56:02.230Z,1857.00
2023-05-19T07:57:02.304Z,1857.00
2023-05-19T07:58:02.370Z,1842.00
2023-05-19T07:59:02.365Z,1838.00
2023-05-19T08:00:02.381Z,1848.00
2023-05-19T08:01:02.404Z,1849.00
2023-05-19T08:02:02.467Z,1849.00
2023-05-19T08:03:02.480Z,1862.00
2023-05-19T08:04:02.810Z,1866.00
2023-05-19T08:05:02.488Z,1870.00
2023-05-19T08:06:02.532Z,1873.00
2023-05-19T08:07:02.591Z,1889.00
2023-05-19T08:08:02.618Z,1887.00
2023-05-19T08:09:02.663Z,1868.00
2023-05-19T08:10:02.707Z,1888.00
2023-05-19T08:11:02.768Z,1858.00
2023-05-19T08:12:02.815Z,1878.00
2023-05-19T08:13:02.856Z,1892.00
2023-05-19T08:14:02.885Z,1873.00
2023-05-19T08:15:02.930Z,1878.00
2023-05-19T08:16:03.051Z,1869.00
2023-05-19T08:17:03.005Z,1875.00
2023-05-19T08:18:03.069Z,1920.00
2023-05-19T08:19:03.104Z,1942.00
2023-05-19T08:20:03.131Z,1904.00
2023-05-19T08:21:03.152Z,1918.00
2023-05-19T08:22:03.176Z,1907.00
2023-05-19T08:23:03.218Z,1933.00
2023-05-19T08:24:03.241Z,1966.00
2023-05-19T08:25:03.276Z,1973.00
2023-05-19T08:26:03.328Z,1996.00
2023-05-19T08:27:03.360Z,2027.00
2023-05-19T08:28:03.380Z,2022.00
2023-05-19T08:29:03.424Z,2014.00
2023-05-19T08:30:03.500Z,2022.00
2023-05-19T08:31:03.526Z,2062.00
2023-05-19T08:32:03.557Z,2080.00
2023-05-19T08:33:03.656Z,2130.00
2023-05-19T08:34:03.655Z,2136.00
2023-05-19T08:35:03.689Z,2163.00
2023-05-19T08:36:03.733Z,2150.00
2023-05-19T08:37:03.773Z,2164.00
2023-05-19T08:38:03.798Z,2158.00
2023-05-19T08:39:03.861Z,2147.00
2023-05-19T08:40:03.897Z,2177.00
2023-05-19T08:41:03.931Z,2107.00
2023-05-19T08:42:03.995Z,2096.00
2023-05-19T08:43:04.037Z,2124.00
2023-05-19T08:44:04.082Z,2067.00
2023-05-19T08:45:04.121Z,2079.00
2023-05-19T08:46:04.114Z,2018.00
2023-05-19T08:47:04.168Z,2012.00
2023-05-19T08:48:04.295Z,2048.00
2023-05-19T08:49:04.212Z,2005.00
2023-05-19T08:50:04.270Z,2000.00
2023-05-19T08:51:04.321Z,1945.00
2023-05-19T08:52:04.426Z,1931.00
2023-05-19T08:53:04.407Z,1982.00
2023-05-19T08:54:04.465Z,1942.00
2023-05-19T08:55:04.520Z,1920.00
2023-05-19T08:56:04.576Z,1898.00
2023-05-19T08:57:04.631Z,1895.00
2023-05-19T08:58:04.677Z,1936.00
2023-05-19T08:59:04.727Z,1937.00
2023-05-19T09:00:04.802Z,1902.00
2023-05-19T09:01:04.941Z,1883.00
2023-05-19T09:02:04.890Z,1888.00
2023-05-19T09:04:05.049Z,1834.00
2023-05-19T09:05:05.139Z,1791.00
2023-05-19T09:06:05.153Z,1747.00
2023-05-19T09:07:05.150Z,1744.00
2023-05-19T09:08:05.241Z,1715.00
2023-05-19T09:09:05.265Z,1708.00
2023-05-19T09:10:05.273Z,1710.00
2023-05-19T09:11:05.313Z,1697.00
2023-05-19T09:12:05.355Z,1690.00
2023-05-19T09:13:05.370Z,1700.00
2023-05-19T09:14:05.411Z,1712.00
2023-05-19T09:15:05.393Z,1695.00
2023-05-19T09:16:05.460Z,1712.00
2023-05-19T09:17:05.643Z,1727.00
2023-05-19T09:18:05.504Z,1732.00
2023-05-19T09:19:05.492Z,1771.00
2023-05-19T09:20:05.453Z,1760.00
2023-05-19T09:21:05.462Z,1777.00
2023-05-19T09:22:05.486Z,1780.00
2023-05-19T09:23:05.490Z,1798.00
2023-05-19T09:24:05.536Z,1780.00
2023-05-19T09:25:05.541Z,1793.00
2023-05-19T09:26:05.592Z,1782.00
2023-05-19T09:27:05.606Z,1806.00
2023-05-19T09:28:05.637Z,1828.00
2023-05-19T09:29:05.663Z,1770.00
2023-05-19T09:30:05.689Z,1799.00
2023-05-19T09:31:05.687Z,1797.00
2023-05-19T09:32:05.787Z,1788.00
2023-05-19T09:33:05.823Z,1790.00
2023-05-19T09:34:05.753Z,1772.00
2023-05-19T09:35:05.790Z,1818.00
2023-05-19T09:36:05.797Z,1794.00
2023-05-19T09:37:05.817Z,1794.00
2023-05-19T09:38:05.816Z,1813.00
2023-05-19T09:39:05.844Z,1808.00
2023-05-19T09:40:05.937Z,1816.00
2023-05-19T09:41:05.882Z,1848.00
2023-05-19T09:42:05.893Z,1843.00
2023-05-19T09:43:05.886Z,1864.00
2023-05-19T09:44:05.923Z,1879.00
2023-05-19T09:45:05.906Z,1853.00
2023-05-19T09:46:05.964Z,1798.00
2023-05-19T09:47:05.939Z,1765.00
2023-05-19T09:48:05.983Z,1784.00
2023-05-19T09:49:05.976Z,1770.00
2023-05-19T09:50:05.986Z,1779.00
2023-05-19T09:51:06.006Z,1770.00
2023-05-19T09:52:06.013Z,1953.00
2023-05-19T09:53:06.013Z,1999.00
2023-05-19T09:54:06.050Z,2061.00
2023-05-19T09:55:06.065Z,2053.00
2023-05-19T09:56:06.085Z,2048.00
2023-05-19T09:57:08.425Z,1964.00
2023-05-19T09:58:06.085Z,2025.00
2023-05-19T09:59:06.086Z,2088.00
2023-05-19T10:00:06.059Z,2105.00
2023-05-19T10:01:06.181Z,2088.00
2023-05-19T10:02:06.061Z,2044.00
2023-05-19T10:03:06.081Z,2057.00
2023-05-19T10:04:06.212Z,2076.00
2023-05-19T10:05:06.070Z,2098.00
2023-05-19T10:06:06.039Z,2044.00
2023-05-19T10:07:06.044Z,2027.00
2023-05-19T10:08:06.020Z,1988.00
2023-05-19T10:09:06.013Z,1973.00
2023-05-19T10:10:05.995Z,2003.00
2023-05-19T10:11:06.006Z,2006.00
2023-05-19T10:12:05.989Z,2062.00
2023-05-19T10:13:05.989Z,2093.00
2023-05-19T10:14:05.972Z,2059.00
2023-05-19T10:15:05.977Z,2086.00
2023-05-19T10:16:05.988Z,2073.00
2023-05-19T10:17:06.027Z,2093.00
2023-05-19T10:18:05.969Z,2063.00
2023-05-19T10:19:05.983Z,2068.00
2023-05-19T10:20:05.954Z,1980.00
2023-05-19T10:21:05.936Z,1869.00
2023-05-19T10:22:05.911Z,1811.00
2023-05-19T10:23:05.913Z,1804.00
2023-05-19T10:24:05.913Z,1791.00
2023-05-19T10:25:05.903Z,1806.00
2023-05-19T10:26:05.905Z,1805.00
2023-05-19T10:27:05.893Z,1784.00
2023-05-19T10:28:05.894Z,1748.00
2023-05-19T10:29:05.866Z,1695.00
2023-05-19T10:30:05.873Z,1711.00
2023-05-19T10:31:05.859Z,1678.00
2023-05-19T10:32:05.911Z,1686.00
2023-05-19T10:33:05.877Z,1617.00
2023-05-19T10:34:05.844Z,1625.00
2023-05-19T10:35:05.827Z,1604.00
2023-05-19T10:36:05.824Z,1623.00
2023-05-19T10:37:05.824Z,1579.00
2023-05-19T10:38:05.822Z,1508.00
2023-05-19T10:39:05.808Z,1461.00
2023-05-19T10:40:05.818Z,1444.00
2023-05-19T10:41:05.818Z,1444.00
2023-05-19T10:42:05.804Z,1426.00
2023-05-19T10:43:05.784Z,1435.00
2023-05-19T10:44:05.785Z,1441.00
2023-05-19T10:45:05.775Z,1450.00
2023-05-19T10:46:05.774Z,1440.00
2023-05-19T10:47:05.817Z,1445.00
2023-05-19T10:48:05.792Z,1450.00
2023-05-19T10:49:05.733Z,1453.00
2023-05-19T10:50:05.745Z,1466.00
2023-05-19T10:51:06.037Z,1476.00
2023-05-19T10:52:05.738Z,1475.00
2023-05-19T10:53:05.730Z,1460.00
2023-05-19T10:54:05.729Z,1453.00
2023-05-19T10:55:05.716Z,1437.00
2023-05-19T10:56:05.710Z,1442.00
2023-05-19T10:57:05.717Z,1472.00
2023-05-19T10:58:05.690Z,1445.00
2023-05-19T10:59:05.680Z,1455.00
2023-05-19T11:00:05.705Z,1476.00
2023-05-19T11:01:05.664Z,1496.00
2023-05-19T11:02:05.748Z,1497.00
2023-05-19T11:03:05.713Z,1442.00
2023-05-19T11:04:05.757Z,1450.00
2023-05-19T11:05:05.725Z,1485.00
2023-05-19T11:06:05.722Z,1540.00
2023-05-19T11:07:05.756Z,1542.00
2023-05-19T11:08:05.772Z,1512.00
2023-05-19T11:09:05.793Z,1516.00
2023-05-19T11:10:05.848Z,1518.00
2023-05-19T11:11:05.840Z,1532.00
2023-05-19T11:12:05.851Z,1500.00
2023-05-19T11:13:06.566Z,1465.00
2023-05-19T11:14:05.863Z,1474.00
2023-05-19T11:15:05.878Z,1542.00
2023-05-19T11:16:05.931Z,1550.00
2023-05-19T11:17:05.974Z,1510.00
2023-05-19T11:18:05.965Z,1506.00
2023-05-19T11:19:05.995Z,1627.00
2023-05-19T11:20:05.983Z,1605.00
2023-05-19T11:21:06.024Z,1658.00
2023-05-19T11:22:06.020Z,1652.00
2023-05-19T11:23:06.093Z,1664.00
2023-05-19T11:24:06.110Z,1662.00
2023-05-19T11:25:06.104Z,1616.00
2023-05-19T11:26:06.115Z,1575.00
2023-05-19T11:27:06.145Z,1538.00
2023-05-19T11:28:06.182Z,1648.00
2023-05-19T11:29:06.207Z,1665.00
2023-05-19T11:30:06.241Z,1714.00
2023-05-19T11:31:06.251Z,1695.00
2023-05-19T11:32:06.325Z,1707.00
2023-05-19T11:33:06.388Z,1687.00
2023-05-19T11:34:06.332Z,1685.00
2023-05-19T11:35:06.386Z,1691.00
2023-05-19T11:36:06.407Z,1738.00
2023-05-19T11:37:06.408Z,1681.00
2023-05-19T11:38:06.450Z,1627.00
2023-05-19T11:39:06.471Z,1604.00
2023-05-19T11:40:06.479Z,1613.00
2023-05-19T11:41:06.506Z,1647.00
2023-05-19T11:42:06.561Z,1723.00
2023-05-19T11:43:06.559Z,1726.00
2023-05-19T11:44:06.596Z,1702.00
2023-05-19T11:45:06.607Z,1724.00
2023-05-19T11:46:06.674Z,1747.00
2023-05-19T11:47:06.674Z,1748.00
2023-05-19T11:48:07.368Z,1670.00
2023-05-19T11:49:06.730Z,1612.00
2023-05-19T11:50:06.786Z,1611.00
2023-05-19T11:51:06.789Z,1620.00
2023-05-19T11:52:06.907Z,1597.00
2023-05-19T11:53:06.871Z,1618.00
2023-05-19T11:54:06.901Z,1645.00
2023-05-19T11:55:06.938Z,1532.00
2023-05-19T11:56:06.973Z,1619.00
2023-05-19T11:57:06.990Z,1537.00
2023-05-19T11:58:07.013Z,1462.00
2023-05-19T11:59:07.067Z,1521.00
2023-05-19T12:00:07.089Z,1523.00
2023-05-19T12:01:07.138Z,1538.00
2023-05-19T12:02:07.191Z,1522.00
2023-05-19T12:03:07.337Z,1455.00
2023-05-19T12:04:07.317Z,1393.00
2023-05-19T12:05:07.276Z,1343.00
2023-05-19T12:06:07.361Z,1282.00
2023-05-19T12:07:07.480Z,1275.00